Time;durP1;ratioP1;P1;durP2;ratioP2;P2;SDS_P1;SDS_P2;PMS_P1;PMS_P2;Temp;Humidity;BMP_temperature;BMP_pressure;BME280_temperature;BME280_humidity;BME280_pressure;Samples;Min_cycle;Max_cycle;Signal;HPM_P1;HPM_P2
2022/05/17 00:00:12;;;;;;;1.40;1.10;;;;;;;9.79;100.00;98791.41;6222321;23;20081;-59
2022/05/17 00:02:59;;;;;;;2.28;1.23;;;;;;;9.72;100.00;98770.47;6220607;23;20022;-60
2022/05/17 00:05:45;;;;;;;3.13;1.40;;;;;;;9.68;100.00;98771.50;6217001;23;20051;-57
2022/05/17 00:08:30;;;;;;;2.15;1.40;;;;;;;9.77;100.00;98782.63;6197726;23;20024;-56
2022/05/17 00:11:15;;;;;;;1.83;1.20;;;;;;;9.77;100.00;98781.78;6210101;23;20515;-59
2022/05/17 00:14:00;;;;;;;1.83;1.20;;;;;;;9.59;100.00;98751.47;6209970;23;20108;-55
2022/05/17 00:16:46;;;;;;;2.10;1.40;;;;;;;9.68;100.00;98776.78;6222314;23;20078;-58
2022/05/17 00:19:31;;;;;;;2.67;1.50;;;;;;;9.66;100.00;98768.91;6208703;23;20060;-61
2022/05/17 00:22:15;;;;;;;2.40;1.30;;;;;;;9.62;100.00;98761.97;6223454;23;20138;-59
2022/05/17 00:25:00;;;;;;;;;;;;;;;9.68;100.00;98763.56;6209818;23;20079;-57
2022/05/17 00:27:45;;;;;;;1.60;1.10;;;;;;;9.61;100.00;98754.06;6222583;23;20254;-58
2022/05/17 00:30:31;;;;;;;1.73;0.93;;;;;;;9.65;100.00;98753.06;6222689;23;20329;-58
2022/05/17 00:33:16;;;;;;;3.42;1.20;;;;;;;9.68;100.00;98760.91;6220863;23;20087;-57
2022/05/17 00:36:02;;;;;;;2.08;0.80;;;;;;;9.68;100.00;98748.53;6222373;23;20071;-58
2022/05/17 00:38:46;;;;;;;5.82;1.00;;;;;;;9.68;100.00;98753.81;6219894;23;20027;-60
2022/05/17 00:41:30;;;;;;;1.67;0.98;;;;;;;9.61;100.00;98739.03;6189539;23;20027;-59
2022/05/17 00:47:30;;;;;;;3.25;1.00;;;;;;;9.66;100.00;98730.97;6208352;23;20034;-65
2022/05/17 00:50:33;;;;;;;3.90;0.80;;;;;;;9.67;100.00;98725.63;6220623;23;20027;-56
2022/05/17 00:53:37;;;;;;;1.88;0.90;;;;;;;9.72;100.00;98720.19;6221814;23;20042;-60
2022/05/17 00:56:23;;;;;;;1.77;0.90;;;;;;;9.59;100.00;98736.44;6221726;23;20031;-62
2022/05/17 00:59:09;;;;;;;1.35;0.80;;;;;;;9.50;100.00;98712.94;6209399;23;20133;-58
2022/05/17 01:01:53;;;;;;;1.75;0.93;;;;;;;9.68;100.00;98730.00;6221912;23;20394;-60
2022/05/17 01:04:40;;;;;;;1.88;0.60;;;;;;;9.69;100.00;98736.16;6220963;23;20039;-59
2022/05/17 01:07:28;;;;;;;1.80;0.80;;;;;;;9.68;100.00;98735.28;6210121;23;20086;-57
2022/05/17 01:10:12;;;;;;;4.20;0.80;;;;;;;9.69;100.00;98728.22;6221849;23;20067;-59
2022/05/17 01:16:10;;;;;;;1.30;0.70;;;;;;;9.62;100.00;98722.28;6117604;23;20081;-67
2022/05/17 01:18:54;;;;;;;1.80;0.90;;;;;;;9.62;100.00;98719.63;6078739;23;20515;-60
2022/05/17 01:21:38;;;;;;;1.50;0.90;;;;;;;9.58;100.00;98728.56;6127255;23;20033;-60
2022/05/17 01:24:24;;;;;;;1.10;0.77;;;;;;;9.50;100.00;98730.59;6108424;23;20029;-59
2022/05/17 01:27:15;;;;;;;0.95;0.70;;;;;;;9.48;100.00;98719.19;6129126;23;20084;-59
2022/05/17 01:30:00;;;;;;;4.10;1.00;;;;;;;9.44;100.00;98710.50;6097593;23;20057;-69
2022/05/17 01:32:45;;;;;;;1.10;0.80;;;;;;;9.62;100.00;98724.91;6119399;23;20029;-60
2022/05/17 01:35:29;;;;;;;1.13;0.77;;;;;;;9.53;100.00;98725.19;6096599;23;20050;-60
2022/05/17 01:38:14;;;;;;;1.10;0.80;;;;;;;9.46;100.00;98707.81;6119394;23;20428;-59
2022/05/17 01:40:59;;;;;;;2.13;0.80;;;;;;;9.60;100.00;98718.78;6118247;23;20868;-57
2022/05/17 01:43:44;;;;;;;2.20;0.90;;;;;;;9.60;100.00;98713.50;6108480;23;20073;-58
2022/05/17 01:46:28;;;;;;;3.50;0.90;;;;;;;9.52;100.00;98699.66;6118835;23;20535;-60
2022/05/17 01:49:13;;;;;;;2.50;1.00;;;;;;;9.61;100.00;98720.50;6118518;23;20503;-71
2022/05/17 01:51:58;;;;;;;1.20;0.88;;;;;;;9.61;100.00;98717.88;6147880;23;20371;-59
2022/05/17 01:54:42;;;;;;;1.03;0.80;;;;;;;9.57;100.00;98709.19;6217544;23;20359;-57
2022/05/17 01:57:26;;;;;;;2.55;1.10;;;;;;;9.55;100.00;98712.78;6198570;23;20339;-58
2022/05/17 02:00:15;;;;;;;1.15;0.88;;;;;;;9.49;100.00;98707.69;6219110;23;20051;-60
2022/05/17 02:02:59;;;;;;;2.22;1.00;;;;;;;9.55;100.00;98705.69;6220844;23;20520;-58
2022/05/17 02:05:43;;;;;;;2.45;1.00;;;;;;;9.61;100.00;98717.03;6219799;23;20111;-60
2022/05/17 02:08:29;;;;;;;2.08;0.98;;;;;;;9.61;100.00;98711.72;6206444;23;20524;-69
2022/05/17 02:11:14;;;;;;;1.83;0.90;;;;;;;9.47;100.00;98696.31;6218414;23;20102;-60
2022/05/17 02:13:58;;;;;;;1.17;0.98;;;;;;;9.49;100.00;98699.75;6216152;23;20071;-61
2022/05/17 02:16:43;;;;;;;1.58;1.08;;;;;;;9.37;100.00;98677.22;6218507;23;20367;-61
2022/05/17 02:19:30;;;;;;;2.60;0.85;;;;;;;9.57;100.00;98704.81;6219416;23;20461;-60
2022/05/17 02:22:14;;;;;;;2.05;0.88;;;;;;;9.63;100.00;98700.19;6218466;23;20042;-61
2022/05/17 02:25:00;;;;;;;2.47;0.90;;;;;;;9.47;100.00;98678.63;6208244;23;20107;-61
2022/05/17 02:27:45;;;;;;;4.18;1.10;;;;;;;9.51;100.00;98690.84;6205610;23;20092;-69
2022/05/17 02:30:29;;;;;;;3.38;0.98;;;;;;;9.61;100.00;98703.78;6206925;23;20055;-60
2022/05/17 02:33:14;;;;;;;1.70;1.10;;;;;;;9.64;100.00;98695.75;6183224;23;20028;-59
2022/05/17 02:35:58;;;;;;;2.25;1.00;;;;;;;9.62;100.00;98682.56;6207087;23;20421;-59
2022/05/17 02:38:45;;;;;;;1.30;1.00;;;;;;;9.70;100.00;98690.25;6210483;23;20027;-60
2022/05/17 02:41:30;;;;;;;2.58;1.00;;;;;;;9.47;100.00;98649.53;6209115;23;20355;-59
2022/05/17 02:44:14;;;;;;;1.20;0.70;;;;;;;9.65;100.00;98685.09;6220602;23;20067;-59
2022/05/17 02:46:59;;;;;;;5.45;0.90;;;;;;;9.49;100.00;98670.66;6209080;23;20078;-67
2022/05/17 02:49:45;;;;;;;1.40;0.90;;;;;;;9.43;100.00;98665.56;6210665;23;20031;-59
2022/05/17 02:52:29;;;;;;;1.25;0.80;;;;;;;9.64;100.00;98686.03;6216755;23;20362;-56
2022/05/17 02:55:15;;;;;;;2.42;1.17;;;;;;;9.64;100.00;98695.75;6219139;23;20067;-62
2022/05/17 02:57:59;;;;;;;0.77;0.75;;;;;;;9.68;100.00;98685.00;6218676;23;20086;-57
2022/05/17 03:00:44;;;;;;;0.90;0.80;;;;;;;9.50;100.00;98649.44;6210270;23;20371;-60
2022/05/17 03:03:28;;;;;;;1.95;1.02;;;;;;;9.59;100.00;98664.16;6219145;23;20366;-58
2022/05/17 03:06:13;;;;;;;2.38;1.10;;;;;;;9.72;100.00;98688.44;6208746;23;20501;-68
2022/05/17 03:08:57;;;;;;;1.50;0.98;;;;;;;9.70;100.00;98682.31;6216497;23;20031;-60
2022/05/17 03:11:43;;;;;;;2.35;1.10;;;;;;;9.73;100.00;98684.84;6205219;23;20103;-61
2022/05/17 03:14:29;;;;;;;2.83;1.02;;;;;;;9.77;100.00;98682.03;6206479;23;20059;-62
2022/05/17 03:17:16;;;;;;;1.75;0.90;;;;;;;9.80;100.00;98695.16;6207049;23;20027;-61
2022/05/17 03:20:01;;;;;;;1.85;0.98;;;;;;;9.86;100.00;98688.81;6217408;23;20074;-62
2022/05/17 03:22:45;;;;;;;2.28;1.05;;;;;;;9.64;100.00;98664.00;6207608;23;20024;-61
2022/05/17 03:25:30;;;;;;;1.75;1.13;;;;;;;9.76;100.00;98688.25;6218515;23;20031;-71
2022/05/17 03:28:14;;;;;;;2.63;1.13;;;;;;;9.74;100.00;98684.81;6220056;23;20062;-60
2022/05/17 03:30:59;;;;;;;2.22;1.30;;;;;;;9.68;100.00;98665.63;6217661;23;20074;-59
2022/05/17 03:33:44;;;;;;;1.50;1.27;;;;;;;9.68;100.00;98682.34;6220254;23;20032;-59
2022/05/17 03:36:28;;;;;;;2.45;1.17;;;;;;;9.85;100.00;98693.22;6219897;23;20038;-58
2022/05/17 03:39:13;;;;;;;1.73;1.10;;;;;;;9.89;100.00;98680.75;6209565;23;20032;-60
2022/05/17 03:41:57;;;;;;;1.60;1.00;;;;;;;9.81;100.00;98673.06;6208575;23;20087;-60
2022/05/17 03:44:42;;;;;;;1.30;0.82;;;;;;;9.91;100.00;98694.81;6209198;23;20489;-68
2022/05/17 03:47:26;;;;;;;1.20;0.82;;;;;;;9.95;100.00;98692.00;6188441;23;20139;-60
2022/05/17 03:50:12;;;;;;;1.83;1.00;;;;;;;10.05;100.00;98692.56;6222133;23;20474;-60
2022/05/17 03:53:00;;;;;;;0.90;0.85;;;;;;;9.85;100.00;98668.56;6223857;23;20043;-57
2022/05/17 03:55:45;;;;;;;1.50;0.95;;;;;;;9.98;100.00;98694.56;6222062;23;20470;-61
2022/05/17 03:58:29;;;;;;;1.25;0.90;;;;;;;9.91;100.00;98678.91;6222646;23;20086;-58
2022/05/17 04:01:14;;;;;;;2.05;1.10;;;;;;;9.88;100.00;98681.69;6213943;23;20343;-59
2022/05/17 04:03:58;;;;;;;2.13;1.15;;;;;;;9.93;100.00;98685.03;6211039;23;20027;-63
2022/05/17 04:06:43;;;;;;;2.97;1.02;;;;;;;9.98;100.00;98686.59;6223000;23;20083;-63
2022/05/17 04:09:27;;;;;;;0.90;0.77;;;;;;;9.89;100.00;98671.03;6187059;23;20055;-65
2022/05/17 04:12:14;;;;;;;3.38;1.58;;;;;;;10.04;100.00;98690.84;6210598;23;20031;-62
2022/05/17 04:14:59;;;;;;;2.08;1.10;;;;;;;10.01;100.00;98696.22;6220508;23;20048;-62
2022/05/17 04:17:43;;;;;;;1.45;1.00;;;;;;;10.03;100.00;98702.31;6211770;23;20055;-62
2022/05/17 04:20:29;;;;;;;2.40;1.00;;;;;;;9.96;100.00;98682.28;6221847;23;20478;-63
2022/05/17 04:23:13;;;;;;;1.85;0.90;;;;;;;9.95;100.00;98681.41;6220033;23;20066;-70
2022/05/17 04:25:58;;;;;;;1.25;0.80;;;;;;;10.05;100.00;98697.84;6221498;23;20059;-61
2022/05/17 04:28:42;;;;;;;3.25;1.23;;;;;;;10.01;100.00;98690.94;6219109;23;20036;-59
2022/05/17 04:31:27;;;;;;;1.13;0.95;;;;;;;9.94;100.00;98671.75;6221422;23;20488;-60
2022/05/17 04:34:12;;;;;;;1.88;0.93;;;;;;;9.99;100.00;98696.28;6221244;23;20500;-61
2022/05/17 04:36:57;;;;;;;1.33;0.93;;;;;;;10.01;100.00;98689.13;6211077;23;20086;-60
2022/05/17 04:39:42;;;;;;;1.40;1.10;;;;;;;9.90;100.00;98675.41;6210950;23;20108;-60
2022/05/17 04:42:27;;;;;;;2.58;1.10;;;;;;;9.91;100.00;98669.19;6218909;23;20039;-68
2022/05/17 04:45:14;;;;;;;1.80;1.10;;;;;;;9.98;100.00;98668.06;6221340;23;20473;-60
2022/05/17 04:47:59;;;;;;;1.77;1.23;;;;;;;10.03;100.00;98699.66;6218728;23;20046;-60
2022/05/17 04:50:43;;;;;;;1.08;0.90;;;;;;;10.07;100.00;98685.44;6221267;23;20031;-63
2022/05/17 04:53:29;;;;;;;2.80;1.40;;;;;;;9.90;100.00;98677.19;6211295;23;20118;-61
2022/05/17 04:56:13;;;;;;;2.13;1.30;;;;;;;10.01;100.00;98685.63;6253367;22;20096;-60
2022/05/17 04:58:59;;;;;;;3.97;1.17;;;;;;;10.10;100.00;98685.34;6226809;22;20491;-61
2022/05/17 05:01:43;;;;;;;1.05;0.93;;;;;;;10.06;100.00;98703.13;6246146;22;20126;-69
2022/05/17 05:04:28;;;;;;;2.92;1.00;;;;;;;10.14;100.00;98693.13;6279901;22;20068;-59
2022/05/17 05:07:12;;;;;;;1.80;0.90;;;;;;;10.14;100.00;98700.19;6267237;22;20054;-60
2022/05/17 05:09:57;;;;;;;1.77;1.05;;;;;;;10.24;100.00;98697.16;6256847;22;20073;-62
2022/05/17 05:12:42;;;;;;;1.52;0.90;;;;;;;10.30;100.00;98682.84;6256817;22;20411;-62
2022/05/17 05:15:26;;;;;;;3.13;1.13;;;;;;;10.14;100.00;98673.72;6226050;22;20306;-60
2022/05/17 05:18:11;;;;;;;1.75;0.95;;;;;;;10.31;100.00;98685.44;6281972;22;20077;-60
2022/05/17 05:21:11;;;;;;;1.15;0.80;;;;;;;10.33;100.00;98702.16;6225857;22;20031;-67
2022/05/17 05:23:56;;;;;;;1.40;1.10;;;;;;;10.41;100.00;98708.03;6248901;22;20022;-61
2022/05/17 05:26:40;;;;;;;1.25;0.98;;;;;;;10.46;100.00;98695.47;6271391;22;20053;-60
2022/05/17 05:29:26;;;;;;;1.42;1.00;;;;;;;10.39;100.00;98677.19;6258809;22;20035;-60
2022/05/17 05:32:10;;;;;;;3.60;1.10;;;;;;;10.50;100.00;98688.28;6281734;22;20073;-61
2022/05/17 05:34:54;;;;;;;1.70;1.10;;;;;;;10.36;100.00;98664.94;6269016;22;20046;-67
2022/05/17 05:37:39;;;;;;;2.35;1.05;;;;;;;10.51;100.00;98690.00;6237400;22;20062;-58
2022/05/17 05:40:24;;;;;;;0.77;0.77;;;;;;;10.54;100.00;98692.53;6224668;22;20476;-61
2022/05/17 05:43:08;;;;;;;1.70;1.00;;;;;;;10.52;100.00;98697.91;6271668;22;20103;-61
2022/05/17 05:45:53;;;;;;;2.03;1.33;;;;;;;10.56;100.00;98690.72;6258642;22;20367;-60
2022/05/17 05:48:37;;;;;;;1.30;1.20;;;;;;;10.52;100.00;98700.53;6258266;22;20031;-59
2022/05/17 05:51:22;;;;;;;2.58;1.20;;;;;;;10.45;100.00;98682.28;6281968;22;20027;-60
2022/05/17 05:54:07;;;;;;;3.03;1.20;;;;;;;10.52;100.00;98710.31;6280179;22;20048;-64
2022/05/17 05:56:52;;;;;;;2.45;1.40;;;;;;;10.65;100.00;98712.44;6282652;22;20034;-59
2022/05/17 05:59:37;;;;;;;1.92;1.10;;;;;;;10.51;100.00;98680.28;6246272;22;20030;-60
2022/05/17 06:02:22;;;;;;;1.52;1.20;;;;;;;10.70;100.00;98710.47;6259573;22;20039;-60
2022/05/17 06:05:07;;;;;;;1.60;1.20;;;;;;;10.56;100.00;98696.00;6249961;22;20522;-61
2022/05/17 06:07:52;;;;;;;1.65;1.20;;;;;;;10.63;100.00;98708.09;6284006;22;20511;-60
2022/05/17 06:10:36;;;;;;;1.52;1.20;;;;;;;10.70;100.00;98714.91;6272754;22;20030;-61
2022/05/17 06:13:21;;;;;;;1.23;1.10;;;;;;;10.58;100.00;98716.25;6257119;22;20030;-62
2022/05/17 06:16:05;;;;;;;1.25;1.10;;;;;;;10.47;100.00;98704.28;6271315;22;20031;-60
2022/05/17 06:18:50;;;;;;;5.28;1.48;;;;;;;10.61;100.00;98728.50;6224429;22;20058;-59
2022/05/17 06:21:37;;;;;;;3.05;1.48;;;;;;;10.74;100.00;98728.00;6271099;22;20050;-64
2022/05/17 06:24:21;;;;;;;2.38;1.65;;;;;;;10.78;100.00;98731.41;6281614;22;20389;-57
2022/05/17 06:27:06;;;;;;;3.47;1.50;;;;;;;10.68;100.00;98716.75;6226399;22;20360;-57
2022/05/17 06:29:51;;;;;;;1.67;1.33;;;;;;;10.92;100.00;98729.94;6271033;22;20077;-60
2022/05/17 06:32:37;;;;;;;1.70;1.60;;;;;;;10.75;100.00;98700.56;6246396;22;20073;-65
2022/05/17 06:35:21;;;;;;;3.33;2.03;;;;;;;10.93;100.00;98729.06;6281297;22;20515;-60
2022/05/17 06:38:07;;;;;;;4.13;2.63;;;;;;;10.89;100.00;98724.78;6255481;22;20026;-60
2022/05/17 06:40:52;;;;;;;4.03;2.83;;;;;;;10.99;100.00;98723.50;6258097;22;20105;-61
2022/05/17 06:43:36;;;;;;;5.40;3.42;;;;;;;11.07;100.00;98734.69;6281674;22;20438;-58
2022/05/17 06:46:21;;;;;;;3.50;2.40;;;;;;;11.11;100.00;98733.63;6248202;22;20488;-60
2022/05/17 06:49:05;;;;;;;3.67;2.92;;;;;;;11.00;100.00;98729.69;6281238;22;20411;-62
2022/05/17 06:51:49;;;;;;;5.13;2.70;;;;;;;10.88;100.00;98703.63;6279991;22;20499;-70
2022/05/17 06:54:36;;;;;;;3.40;3.05;;;;;;;11.01;100.00;98731.41;6281291;22;20039;-63
2022/05/17 06:57:20;;;;;;;3.72;2.63;;;;;;;11.00;100.00;98722.56;6278959;22;20153;-60
2022/05/17 07:00:05;;;;;;;5.47;2.58;;;;;;;11.10;100.00;98721.31;6281277;22;20361;-61
2022/05/17 07:02:50;;;;;;;4.50;2.50;;;;;;;11.03;100.00;98732.22;6281112;22;20034;-61
2022/05/17 07:05:34;;;;;;;4.93;2.95;;;;;;;11.10;100.00;98739.00;6271042;22;20043;-59
2022/05/17 07:08:19;;;;;;;2.97;2.35;;;;;;;11.04;100.00;98744.56;6281067;22;20356;-60
2022/05/17 07:14:07;;;;;;;4.07;2.67;;;;;;;11.04;100.00;98748.03;6270550;22;20073;-61
2022/05/17 07:16:51;;;;;;;2.83;2.50;;;;;;;11.11;100.00;98746.06;6257661;22;20030;-60
2022/05/17 07:19:37;;;;;;;3.60;2.75;;;;;;;11.20;100.00;98743.88;6269403;22;20026;-70
2022/05/17 07:22:22;;;;;;;2.90;2.40;;;;;;;11.15;100.00;98752.97;6280441;22;20030;-59
2022/05/17 07:25:08;;;;;;;3.20;2.75;;;;;;;11.32;100.00;98747.88;6268129;22;20030;-57
2022/05/17 07:27:52;;;;;;;3.78;2.85;;;;;;;11.18;100.00;98740.44;6257392;22;20027;-62
2022/05/17 07:30:37;;;;;;;4.57;3.20;;;;;;;11.34;100.00;98735.38;6280266;22;20026;-57
2022/05/17 07:33:21;;;;;;;4.47;3.03;;;;;;;11.43;100.00;98748.31;6270857;22;20471;-59
2022/05/17 07:36:08;;;;;;;4.43;2.88;;;;;;;11.44;100.00;98756.19;6280791;22;20433;-60
2022/05/17 07:38:52;;;;;;;5.05;2.83;;;;;;;11.51;100.00;98763.00;6256337;22;20026;-71
2022/05/17 07:41:37;;;;;;;3.85;3.10;;;;;;;11.55;100.00;98761.09;6280835;22;20142;-60
2022/05/17 07:44:21;;;;;;;7.20;3.47;;;;;;;11.57;100.00;98767.19;6278211;22;20073;-57
2022/05/17 07:47:07;;;;;;;4.82;3.45;;;;;;;11.65;100.00;98758.03;6271036;22;20484;-59
2022/05/17 07:49:54;;;;;;;4.45;3.05;;;;;;;11.54;100.00;98760.22;6225897;22;20442;-61
2022/05/17 07:52:38;;;;;;;;;;;;;;;11.54;100.00;98756.69;6281378;22;20426;-60
2022/05/17 07:55:23;;;;;;;5.28;3.55;;;;;;;11.29;100.00;98756.81;6270468;22;19964;-60
2022/05/17 07:58:09;;;;;;;5.32;4.18;;;;;;;11.30;100.00;98763.84;6256148;22;20034;-72
2022/05/17 08:00:56;;;;;;;7.22;4.13;;;;;;;11.20;100.00;98748.34;6247996;22;20026;-62
2022/05/17 08:03:42;;;;;;;4.53;4.10;;;;;;;11.43;100.00;98754.47;6245533;22;20054;-64
2022/05/17 08:06:26;;;;;;;6.97;4.47;;;;;;;11.48;100.00;98749.84;6270148;22;20043;-61
2022/05/17 08:09:11;;;;;;;4.65;3.63;;;;;;;11.69;100.00;98751.69;6247701;22;20467;-60
2022/05/17 08:11:56;;;;;;;6.85;4.10;;;;;;;11.79;100.00;98760.97;6247015;22;20449;-63
2022/05/17 08:14:41;;;;;;;4.10;3.70;;;;;;;12.11;100.00;98765.81;6270513;22;20054;-59
2022/05/17 08:17:26;;;;;;;5.05;4.10;;;;;;;12.47;100.00;98764.25;6255661;22;20034;-63
2022/05/17 08:20:11;;;;;;;5.20;3.97;;;;;;;12.69;100.00;98733.13;6257598;22;20103;-61
2022/05/17 08:22:56;;;;;;;6.57;4.05;;;;;;;12.72;100.00;98748.97;6277979;22;20523;-63
2022/05/17 08:28:43;;;;;;;4.18;3.72;;;;;;;12.92;100.00;98756.91;6280274;22;20026;-64
2022/05/17 08:31:27;;;;;;;5.45;3.72;;;;;;;12.91;100.00;98765.84;6245052;22;20031;-61
2022/05/17 08:34:12;;;;;;;4.22;3.83;;;;;;;12.96;100.00;98749.63;6280855;22;20034;-63
2022/05/17 08:36:56;;;;;;;5.07;3.80;;;;;;;13.37;100.00;98767.25;6227800;22;20096;-61
2022/05/17 08:39:41;;;;;;;5.03;3.35;;;;;;;13.39;100.00;98760.94;6248903;22;20441;-63
2022/05/17 08:42:38;;;;;;;4.32;3.08;;;;;;;13.31;100.00;98772.88;6271932;22;20476;-60
2022/05/17 08:45:32;;;;;;;3.97;3.20;;;;;;;13.20;100.00;98754.75;6267519;22;20132;-60
2022/05/17 08:48:19;;;;;;;4.15;3.05;;;;;;;13.31;100.00;98764.88;6249339;22;20563;-63
2022/05/17 08:51:05;;;;;;;4.95;3.50;;;;;;;13.05;100.00;98736.81;6227797;22;20507;-60
2022/05/17 08:53:50;;;;;;;3.30;2.90;;;;;;;13.02;100.00;98774.19;6279997;22;20030;-57
2022/05/17 08:56:40;;;;;;;3.90;3.15;;;;;;;13.00;100.00;98767.22;6249259;22;20077;-58
2022/05/17 08:59:24;;;;;;;3.63;3.33;;;;;;;12.86;100.00;98780.28;6272021;22;20027;-59
2022/05/17 09:02:17;;;;;;;3.13;2.83;;;;;;;12.65;100.00;98762.59;6272402;22;20030;-59
2022/05/17 09:05:02;;;;;;;3.30;3.00;;;;;;;12.31;100.00;98765.00;6282518;22;20172;-59
2022/05/17 09:08:11;;;;;;;4.25;3.45;;;;;;;12.42;100.00;98787.53;6280099;22;20026;-59
2022/05/17 09:11:11;;;;;;;7.10;4.38;;;;;;;12.23;100.00;98765.31;6225263;22;20050;-58
2022/05/17 09:14:09;;;;;;;3.92;3.53;;;;;;;12.09;100.00;98786.31;6283146;22;20037;-58
2022/05/17 09:17:07;;;;;;;4.80;3.60;;;;;;;12.28;100.00;98789.91;6272917;22;20034;-60
2022/05/17 09:19:53;;;;;;;7.75;4.25;;;;;;;12.21;100.00;98780.47;6249839;22;20107;-59
2022/05/17 09:22:37;;;;;;;5.25;4.20;;;;;;;12.12;100.00;98783.53;6281797;22;20392;-75
2022/05/17 09:25:43;;;;;;;8.77;4.40;;;;;;;12.21;100.00;98787.56;6229353;22;20522;-57
2022/05/17 09:28:45;;;;;;;5.93;4.80;;;;;;;12.30;100.00;98779.22;6259907;22;20523;-61
2022/05/17 09:31:36;;;;;;;7.28;4.95;;;;;;;12.11;100.00;98783.59;6270749;22;20549;-60
2022/05/17 09:34:36;;;;;;;6.68;5.05;;;;;;;12.27;100.00;98782.00;6280976;22;20034;-70
2022/05/17 09:37:21;;;;;;;7.07;5.30;;;;;;;12.17;100.00;98776.22;6249549;22;20369;-57
2022/05/17 09:40:09;;;;;;;6.65;5.45;;;;;;;12.21;100.00;98780.47;6249038;22;20030;-65
2022/05/17 09:42:57;;;;;;;7.97;5.95;;;;;;;12.23;100.00;98775.09;6277861;22;20418;-66
2022/05/17 09:45:58;;;;;;;6.53;5.50;;;;;;;12.44;100.00;98780.38;6224394;22;20073;-61
2022/05/17 09:52:42;;;;;;;7.57;6.63;;;;;;;12.36;100.00;98786.94;6245895;22;20393;-59
2022/05/17 09:55:33;;;;;;;10.45;7.50;;;;;;;12.19;100.00;98766.38;6278703;22;20077;-59
2022/05/17 09:58:36;;;;;;;8.70;7.53;;;;;;;12.42;100.00;98798.16;6281956;22;20030;-61
2022/05/17 10:01:28;;;;;;;8.27;7.03;;;;;;;12.25;100.00;98765.25;6226740;22;20039;-60
2022/05/17 10:04:18;;;;;;;7.80;7.00;;;;;;;12.10;100.00;98780.06;6271276;22;20062;-63
2022/05/17 10:07:14;;;;;;;9.48;7.20;;;;;;;12.04;100.00;98767.03;6228037;22;20129;-66
2022/05/17 10:10:21;;;;;;;8.60;7.70;;;;;;;12.11;100.00;98780.94;6281802;22;20239;-57
2022/05/17 10:13:19;;;;;;;12.68;9.25;;;;;;;12.02;100.00;98792.78;6247020;22;20444;-59
2022/05/17 10:16:15;;;;;;;12.52;8.27;;;;;;;12.09;100.00;98788.97;6269418;22;20030;-65
2022/05/17 10:19:23;;;;;;;10.95;8.27;;;;;;;12.07;100.00;98805.91;6258880;22;20084;-58
2022/05/17 10:22:35;;;;;;;11.25;8.40;;;;;;;12.00;100.00;98792.00;6140103;23;20055;-59
2022/05/17 10:25:31;;;;;;;12.68;8.77;;;;;;;11.94;100.00;98799.34;6165996;23;20537;-60
2022/05/17 10:28:50;;;;;;;11.75;8.80;;;;;;;11.89;100.00;98809.28;6187765;23;20044;-60
2022/05/17 10:31:58;;;;;;;11.27;8.60;;;;;;;11.92;100.00;98804.75;6156547;23;20075;-60
2022/05/17 10:34:54;;;;;;;13.00;9.90;;;;;;;12.06;100.00;98809.44;6156680;23;20109;-59
2022/05/17 10:37:57;;;;;;;12.05;9.30;;;;;;;12.25;100.00;98807.78;6164629;23;20060;-62
2022/05/17 10:40:46;;;;;;;10.40;9.00;;;;;;;12.58;100.00;98793.91;6185059;23;20032;-65
2022/05/17 10:43:38;;;;;;;11.38;9.18;;;;;;;12.82;100.00;98814.09;6177811;23;20128;-60
2022/05/17 10:46:30;;;;;;;13.30;10.25;;;;;;;12.72;100.00;98788.00;6177646;23;20028;-58
2022/05/17 10:49:17;;;;;;;13.25;9.40;;;;;;;12.83;100.00;98809.66;6164142;23;20060;-71
2022/05/17 10:52:20;;;;;;;13.02;10.77;;;;;;;13.00;100.00;98820.44;6187519;23;20530;-60
2022/05/17 10:55:55;;;;;;;12.88;10.07;;;;;;;13.00;100.00;98797.38;6176586;23;20031;-57
2022/05/17 10:58:39;;;;;;;12.63;8.75;;;;;;;12.87;100.00;98798.84;6180188;23;20181;-59
2022/05/17 11:01:40;;;;;;;10.85;8.45;;;;;;;13.03;100.00;98793.69;6217945;23;20035;-58
2022/05/17 11:04:37;;;;;;;8.82;7.38;;;;;;;13.52;100.00;98788.69;6194906;23;20027;-59
2022/05/17 11:07:31;;;;;;;7.45;6.68;;;;;;;14.17;100.00;98800.63;6216421;23;20148;-71
2022/05/17 11:10:30;;;;;;;8.60;6.83;;;;;;;14.33;100.00;98785.63;6218036;23;20052;-58
2022/05/17 11:13:43;;;;;;;7.72;6.13;;;;;;;14.57;100.00;98803.91;6187349;23;20454;-59
2022/05/17 11:16:37;;;;;;;9.25;6.15;;;;;;;15.20;100.00;98787.19;6185819;23;20473;-60
2022/05/17 11:19:33;;;;;;;11.15;5.63;;;;;;;15.25;100.00;98792.25;6183613;23;20409;-60
2022/05/17 11:22:17;;;;;;;8.07;5.55;;;;;;;14.83;100.00;98803.41;6207010;23;20074;-74
2022/05/17 11:25:36;;;;;;;9.85;6.38;;;;;;;14.64;100.00;98805.28;6217671;23;20370;-60
2022/05/17 11:28:37;;;;;;;8.27;6.03;;;;;;;14.73;100.00;98794.16;6186400;23;20032;-61
2022/05/17 11:31:59;;;;;;;6.38;5.72;;;;;;;14.64;100.00;98812.47;6229675;22;20501;-63
2022/05/17 11:34:45;;;;;;;9.02;6.65;;;;;;;14.11;100.00;98811.59;6126962;23;20032;-58
2022/05/17 11:37:32;;;;;;;8.68;6.07;;;;;;;13.92;100.00;98819.63;6154863;23;20036;-58
2022/05/17 11:40:49;;;;;;;8.02;6.30;;;;;;;13.61;100.00;98827.38;6126278;23;20435;-61
2022/05/17 11:43:48;;;;;;;10.77;6.32;;;;;;;13.18;100.00;98809.81;6126714;23;20033;-59
2022/05/17 11:46:34;;;;;;;8.05;6.22;;;;;;;13.01;100.00;98827.50;6157076;23;20538;-62
2022/05/17 11:49:33;;;;;;;8.65;6.68;;;;;;;13.04;100.00;98838.00;6104495;23;20096;-59
2022/05/17 11:52:24;;;;;;;11.77;6.50;;;;;;;13.12;100.00;98847.38;6125266;23;20024;-72
2022/05/17 11:55:17;;;;;;;13.40;6.55;;;;;;;13.21;100.00;98836.31;6157052;23;20032;-58
2022/05/17 11:58:04;;;;;;;7.53;6.03;;;;;;;13.22;100.00;98839.84;6156449;23;20538;-59
2022/05/17 12:00:51;;;;;;;7.95;6.20;;;;;;;13.14;100.00;98831.34;6156540;23;20039;-70
2022/05/17 12:03:52;;;;;;;8.02;6.95;;;;;;;13.21;100.00;98860.28;6126185;23;20032;-58
2022/05/17 12:06:41;;;;;;;9.88;6.50;;;;;;;13.13;100.00;98859.75;6126380;23;20167;-63
2022/05/17 12:09:29;;;;;;;8.25;5.93;;;;;;;12.80;100.00;98855.00;6246231;22;20026;-74
2022/05/17 12:12:38;;;;;;;6.70;6.00;;;;;;;12.71;100.00;98868.72;6282822;22;20068;-63
2022/05/17 12:15:44;;;;;;;8.82;6.00;;;;;;;12.78;100.00;98863.06;6228434;22;20102;-64
2022/05/17 12:18:38;;;;;;;6.20;5.60;;;;;;;12.57;100.00;98855.13;6235361;22;20142;-63
2022/05/17 12:21:51;;;;;;;8.50;5.20;;;;;;;12.72;100.00;98860.69;6256584;22;20149;-59
2022/05/17 12:24:52;;;;;;;8.82;5.72;;;;;;;12.81;100.00;98854.06;6243203;22;20551;-60
2022/05/17 12:27:43;;;;;;;9.68;5.70;;;;;;;12.85;100.00;98858.31;6268837;22;20027;-65
2022/05/17 12:30:54;;;;;;;6.82;4.72;;;;;;;12.75;100.00;98865.00;6281408;22;20034;-60
2022/05/17 12:33:45;;;;;;;5.10;4.57;;;;;;;12.76;100.00;98854.28;6270525;22;20325;-63
2022/05/17 12:36:35;;;;;;;6.28;5.35;;;;;;;12.72;100.00;98858.03;6226773;22;20039;-58
2022/05/17 12:45:38;;;;;;;6.32;4.70;;;;;;;12.94;100.00;98858.78;6271796;22;20030;-60
2022/05/17 12:48:37;;;;;;;7.37;4.70;;;;;;;12.99;100.00;98855.97;6228382;22;20030;-59
2022/05/17 12:51:24;;;;;;;9.90;4.80;;;;;;;13.12;100.00;98866.00;6258118;22;20134;-60
2022/05/17 12:54:13;;;;;;;6.28;5.28;;;;;;;13.05;100.00;98840.59;6247450;22;20042;-59
2022/05/17 12:56:59;;;;;;;10.13;6.40;;;;;;;13.11;100.00;98872.28;6270563;22;20074;-62
2022/05/17 12:59:43;;;;;;;10.23;5.88;;;;;;;13.26;100.00;98868.06;6244766;22;20046;-62
2022/05/17 13:02:28;;;;;;;8.23;5.50;;;;;;;13.36;100.00;98870.25;6280513;22;20057;-62
2022/05/17 13:05:33;;;;;;;10.63;6.10;;;;;;;13.53;100.00;98872.97;6255729;22;20034;-59
2022/05/17 13:08:24;;;;;;;8.65;5.28;;;;;;;13.41;100.00;98870.00;6267528;22;20035;-62
2022/05/17 13:11:24;;;;;;;10.82;5.13;;;;;;;13.21;100.00;98870.03;6257185;22;20062;-63
2022/05/17 13:14:21;;;;;;;7.07;4.63;;;;;;;13.20;100.00;98865.66;6270209;22;20030;-60
2022/05/17 13:17:16;;;;;;;10.57;4.28;;;;;;;13.25;100.00;98871.63;6257291;22;20107;-62
2022/05/17 13:20:28;;;;;;;6.72;3.50;;;;;;;13.19;100.00;98877.25;6278349;22;20127;-63
2022/05/17 13:23:21;;;;;;;4.53;3.47;;;;;;;13.10;100.00;98878.50;6244901;22;20030;-62
2022/05/17 13:26:06;;;;;;;8.65;5.22;;;;;;;13.08;100.00;98880.41;6280160;22;20092;-62
2022/05/17 13:28:51;;;;;;;6.63;4.13;;;;;;;13.07;100.00;98880.47;6225495;22;20118;-62